createdAt,value
2023-05-21T00:00:27.000Z,14.5
2023-05-21T00:01:39.000Z,14.8
2023-05-21T00:02:51.000Z,14.1
2023-05-21T00:04:03.000Z,15.4
2023-05-21T00:05:16.000Z,14.5
2023-05-21T00:06:28.000Z,15.4
2023-05-21T00:07:40.000Z,14.8
2023-05-21T00:08:51.000Z,14.8
2023-05-21T00:10:03.000Z,14.1
2023-05-21T00:11:16.000Z,15.1
2023-05-21T00:12:28.000Z,13.8
2023-05-21T00:13:40.000Z,14.5
2023-05-21T00:14:52.000Z,15.1
2023-05-21T00:16:04.000Z,15.1
2023-05-21T00:17:16.000Z,14.8
2023-05-21T00:18:29.000Z,14.5
2023-05-21T00:19:41.000Z,13.8
2023-05-21T00:20:53.000Z,14.5
2023-05-21T00:22:05.000Z,14.8
2023-05-21T00:23:17.000Z,14.1
2023-05-21T00:24:29.000Z,14.8
2023-05-21T00:25:41.000Z,14.5
2023-05-21T00:26:53.000Z,14.5
2023-05-21T00:28:05.000Z,14.5
2023-05-21T00:29:17.000Z,15.1
2023-05-21T00:30:29.000Z,15.7
2023-05-21T00:31:42.000Z,14.8
2023-05-21T00:32:54.000Z,14.1
2023-05-21T00:34:06.000Z,14.8
2023-05-21T00:35:18.000Z,15.4
2023-05-21T00:36:30.000Z,15.4
2023-05-21T00:37:43.000Z,14.8
2023-05-21T00:38:55.000Z,14.5
2023-05-21T00:40:07.000Z,15.4
2023-05-21T00:41:18.000Z,14.5
2023-05-21T00:42:30.000Z,14.5
2023-05-21T00:43:43.000Z,14.8
2023-05-21T00:44:55.000Z,15.7
2023-05-21T00:46:07.000Z,14.1
2023-05-21T00:47:19.000Z,15.4
2023-05-21T00:48:31.000Z,15.7
2023-05-21T00:49:43.000Z,14.8
2023-05-21T00:50:56.000Z,14.5
2023-05-21T00:52:08.000Z,14.8
2023-05-21T00:53:20.000Z,14.5
2023-05-21T00:54:32.000Z,14.5
2023-05-21T00:55:44.000Z,13.8
2023-05-21T00:56:56.000Z,14.5
2023-05-21T00:58:08.000Z,14.1
2023-05-21T00:59:20.000Z,14.8
2023-05-21T01:00:32.000Z,13.8
2023-05-21T01:01:44.000Z,14.5
2023-05-21T01:02:56.000Z,15.1
2023-05-21T01:04:09.000Z,15.1
2023-05-21T01:05:21.000Z,14.1
2023-05-21T01:06:33.000Z,15.4
2023-05-21T01:07:45.000Z,14.5
2023-05-21T01:08:57.000Z,15.7
2023-05-21T01:10:10.000Z,14.5
2023-05-21T01:11:22.000Z,14.5
2023-05-21T01:12:33.000Z,14.1
2023-05-21T01:13:45.000Z,14.5
2023-05-21T01:14:57.000Z,14.1
2023-05-21T01:16:10.000Z,13.8
2023-05-21T01:17:22.000Z,14.5
2023-05-21T01:18:33.000Z,13.5
2023-05-21T01:19:45.000Z,14.5
2023-05-21T01:20:57.000Z,14.5
2023-05-21T01:22:09.000Z,14.5
2023-05-21T01:23:22.000Z,14.1
2023-05-21T01:24:34.000Z,14.8
2023-05-21T01:25:46.000Z,13.8
2023-05-21T01:26:58.000Z,13.8
2023-05-21T01:28:10.000Z,13.8
2023-05-21T01:29:23.000Z,14.5
2023-05-21T01:30:35.000Z,14.5
2023-05-21T01:31:47.000Z,13.8
2023-05-21T01:32:59.000Z,14.1
2023-05-21T01:34:10.000Z,14.1
2023-05-21T01:35:23.000Z,14.5
2023-05-21T01:36:35.000Z,14.1
2023-05-21T01:37:47.000Z,14.1
2023-05-21T01:38:59.000Z,13.5
2023-05-21T01:40:11.000Z,14.5
2023-05-21T01:41:23.000Z,14.1
2023-05-21T01:42:36.000Z,13.5
2023-05-21T01:43:48.000Z,14.5
2023-05-21T01:45:00.000Z,12.8
2023-05-21T01:46:12.000Z,14.1
2023-05-21T01:47:24.000Z,14.1
2023-05-21T01:48:37.000Z,14.5
2023-05-21T01:49:48.000Z,14.5
2023-05-21T01:51:00.000Z,14.1
2023-05-21T01:52:12.000Z,13.5
2023-05-21T01:53:24.000Z,14.1
2023-05-21T01:54:36.000Z,13.8
2023-05-21T01:55:49.000Z,13.8
2023-05-21T01:57:01.000Z,14.1
2023-05-21T01:58:13.000Z,14.1
2023-05-21T01:59:25.000Z,13.8
2023-05-21T02:00:37.000Z,14.5
2023-05-21T02:01:50.000Z,13.5
2023-05-21T02:03:02.000Z,13.8
2023-05-21T02:04:14.000Z,14.1
2023-05-21T02:05:25.000Z,13.8
2023-05-21T02:06:37.000Z,14.1
2023-05-21T02:07:50.000Z,14.8
2023-05-21T02:09:02.000Z,14.1
2023-05-21T02:10:14.000Z,13.5
2023-05-21T02:11:26.000Z,14.1
2023-05-21T02:12:38.000Z,14.1
2023-05-21T02:13:50.000Z,14.1
2023-05-21T02:15:03.000Z,14.1
2023-05-21T02:16:15.000Z,14.1
2023-05-21T02:17:27.000Z,13.8
2023-05-21T02:18:39.000Z,14.1
2023-05-21T02:19:51.000Z,14.1
2023-05-21T02:21:03.000Z,14.1
2023-05-21T02:22:15.000Z,13.2
2023-05-21T02:23:27.000Z,13.8
2023-05-21T02:24:39.000Z,14.1
2023-05-21T02:25:51.000Z,14.1
2023-05-21T02:27:03.000Z,13.2
2023-05-21T02:28:16.000Z,13.2
2023-05-21T02:29:28.000Z,14.5
2023-05-21T02:30:40.000Z,13.5
2023-05-21T02:31:52.000Z,12.8
2023-05-21T02:33:04.000Z,14.5
2023-05-21T02:34:17.000Z,14.1
2023-05-21T02:35:29.000Z,14.1
2023-05-21T02:36:40.000Z,13.8
2023-05-21T02:37:52.000Z,13.2
2023-05-21T02:39:04.000Z,13.8
2023-05-21T02:40:17.000Z,14.1
2023-05-21T02:41:29.000Z,14.1
2023-05-21T02:42:41.000Z,14.1
2023-05-21T02:43:53.000Z,14.5
2023-05-21T02:45:05.000Z,14.1
2023-05-21T02:46:17.000Z,14.1
2023-05-21T02:47:30.000Z,14.1
2023-05-21T02:48:42.000Z,13.5
2023-05-21T02:49:54.000Z,13.8
2023-05-21T02:51:06.000Z,13.2
2023-05-21T02:52:17.000Z,14.1
2023-05-21T02:53:30.000Z,13.8
2023-05-21T02:54:42.000Z,14.5
2023-05-21T02:55:54.000Z,14.1
2023-05-21T02:57:06.000Z,13.5
2023-05-21T02:58:18.000Z,14.5
2023-05-21T02:59:30.000Z,13.8
2023-05-21T03:00:43.000Z,14.8
2023-05-21T03:01:55.000Z,13.8
2023-05-21T03:03:07.000Z,14.5
2023-05-21T03:04:19.000Z,14.1
2023-05-21T03:05:31.000Z,13.8
2023-05-21T03:06:44.000Z,14.1
2023-05-21T03:07:55.000Z,14.1
2023-05-21T03:09:07.000Z,14.1
2023-05-21T03:10:19.000Z,13.8
2023-05-21T03:11:31.000Z,13.8
2023-05-21T03:12:44.000Z,15.4
2023-05-21T03:13:56.000Z,13.5
2023-05-21T03:15:08.000Z,14.1
2023-05-21T03:16:20.000Z,13.5
2023-05-21T03:17:32.000Z,13.8
2023-05-21T03:18:44.000Z,15.1
2023-05-21T03:19:57.000Z,13.5
2023-05-21T03:21:09.000Z,14.5
2023-05-21T03:22:21.000Z,13.8
2023-05-21T03:23:32.000Z,13.5
2023-05-21T03:24:44.000Z,14.1
2023-05-21T03:25:57.000Z,13.5
2023-05-21T03:27:09.000Z,13.8
2023-05-21T03:28:21.000Z,13.8
2023-05-21T03:29:33.000Z,13.8
2023-05-21T03:30:45.000Z,13.8
2023-05-21T03:31:57.000Z,13.5
2023-05-21T03:33:10.000Z,13.8
2023-05-21T03:34:22.000Z,13.5
2023-05-21T03:35:34.000Z,14.5
2023-05-21T03:36:46.000Z,14.8
2023-05-21T03:37:58.000Z,14.1
2023-05-21T03:39:10.000Z,13.8
2023-05-21T03:40:22.000Z,14.1
2023-05-21T03:41:34.000Z,13.8
2023-05-21T03:42:46.000Z,14.1
2023-05-21T03:43:58.000Z,13.5
2023-05-21T03:45:11.000Z,13.5
2023-05-21T03:46:23.000Z,14.1
2023-05-21T03:47:35.000Z,13.2
2023-05-21T03:48:47.000Z,14.8
2023-05-21T03:49:59.000Z,13.8
2023-05-21T03:51:11.000Z,14.5
2023-05-21T03:52:24.000Z,14.1
2023-05-21T03:53:36.000Z,13.8
2023-05-21T03:54:47.000Z,14.1
2023-05-21T03:55:59.000Z,13.8
2023-05-21T03:57:11.000Z,13.8
2023-05-21T03:58:24.000Z,14.1
2023-05-21T03:59:36.000Z,13.5
2023-05-21T04:00:48.000Z,13.8
2023-05-21T04:02:00.000Z,13.5
2023-05-21T04:03:12.000Z,13.5
2023-05-21T04:04:24.000Z,13.5
2023-05-21T04:05:37.000Z,12.8
2023-05-21T04:06:49.000Z,13.8
2023-05-21T04:08:01.000Z,13.8
2023-05-21T04:09:13.000Z,13.2
2023-05-21T04:10:24.000Z,13.8
2023-05-21T04:11:37.000Z,13.8
2023-05-21T04:12:49.000Z,13.5
2023-05-21T04:14:01.000Z,13.8
2023-05-21T04:15:13.000Z,14.1
2023-05-21T04:16:25.000Z,13.5
2023-05-21T04:17:38.000Z,13.5
2023-05-21T04:18:50.000Z,14.1
2023-05-21T04:20:02.000Z,13.8
2023-05-21T04:21:14.000Z,13.8
2023-05-21T04:22:26.000Z,13.2
2023-05-21T04:23:38.000Z,14.1
2023-05-21T04:24:51.000Z,13.8
2023-05-21T04:26:02.000Z,13.5
2023-05-21T04:27:14.000Z,14.1
2023-05-21T04:28:26.000Z,14.1
2023-05-21T04:29:38.000Z,14.1
2023-05-21T04:30:51.000Z,14.1
2023-05-21T04:32:03.000Z,14.5
2023-05-21T04:33:15.000Z,14.5
2023-05-21T04:34:27.000Z,14.1
2023-05-21T04:35:39.000Z,14.1
2023-05-21T04:36:51.000Z,14.8
2023-05-21T04:38:04.000Z,15.1
2023-05-21T04:39:16.000Z,14.1
2023-05-21T04:40:28.000Z,14.5
2023-05-21T04:41:39.000Z,13.8
2023-05-21T04:42:51.000Z,14.5
2023-05-21T04:44:04.000Z,13.8
2023-05-21T04:45:16.000Z,14.8
2023-05-21T04:46:28.000Z,14.1
2023-05-21T04:47:40.000Z,14.5
2023-05-21T04:48:52.000Z,13.8
2023-05-21T04:50:05.000Z,13.8
2023-05-21T04:51:17.000Z,14.1
2023-05-21T04:52:29.000Z,14.5
2023-05-21T04:53:41.000Z,14.5
2023-05-21T04:54:53.000Z,14.5
2023-05-21T04:56:05.000Z,14.5
2023-05-21T04:57:17.000Z,14.5
2023-05-21T04:58:29.000Z,14.5
2023-05-21T04:59:41.000Z,15.1
2023-05-21T05:00:53.000Z,14.1
2023-05-21T05:02:05.000Z,14.1
2023-05-21T05:03:18.000Z,14.5
2023-05-21T05:04:30.000Z,14.8
2023-05-21T05:05:42.000Z,14.8
2023-05-21T05:06:54.000Z,14.1
2023-05-21T05:08:06.000Z,13.8
2023-05-21T05:09:18.000Z,14.8
2023-05-21T05:10:31.000Z,13.8
2023-05-21T05:11:43.000Z,15.4
2023-05-21T05:12:54.000Z,14.5
2023-05-21T05:14:06.000Z,14.5
2023-05-21T05:15:18.000Z,15.1
2023-05-21T05:16:31.000Z,15.7
2023-05-21T05:17:43.000Z,15.4
2023-05-21T05:18:55.000Z,15.1
2023-05-21T05:20:06.000Z,14.8
2023-05-21T05:21:18.000Z,15.1
2023-05-21T05:22:31.000Z,15.7
2023-05-21T05:23:43.000Z,15.4
2023-05-21T05:24:55.000Z,15.4
2023-05-21T05:26:07.000Z,15.7
2023-05-21T05:27:19.000Z,15.4
2023-05-21T05:28:31.000Z,15.7
2023-05-21T05:29:44.000Z,15.4
2023-05-21T05:30:56.000Z,15.4
2023-05-21T05:32:08.000Z,16.1
2023-05-21T05:33:20.000Z,15.7
2023-05-21T05:34:32.000Z,16.1
2023-05-21T05:35:44.000Z,16.1
2023-05-21T05:36:56.000Z,16.1
2023-05-21T05:38:08.000Z,17.4
2023-05-21T05:39:20.000Z,16.4
2023-05-21T05:40:32.000Z,16.1
2023-05-21T05:41:45.000Z,15.4
2023-05-21T05:42:57.000Z,17.4
2023-05-21T05:44:09.000Z,16.4
2023-05-21T05:45:21.000Z,16.7
2023-05-21T05:46:33.000Z,17
2023-05-21T05:47:45.000Z,16.1
2023-05-21T05:48:58.000Z,14.5
2023-05-21T05:50:10.000Z,16.7
2023-05-21T05:51:21.000Z,17.7
2023-05-21T05:52:33.000Z,16.4
2023-05-21T05:53:45.000Z,16.4
2023-05-21T05:54:58.000Z,16.4
2023-05-21T05:56:10.000Z,16.7
2023-05-21T05:57:22.000Z,17
2023-05-21T05:58:34.000Z,16.4
2023-05-21T05:59:46.000Z,16.4
2023-05-21T06:00:58.000Z,16.7
2023-05-21T06:02:11.000Z,16.4
2023-05-21T06:03:23.000Z,16.4
2023-05-21T06:04:35.000Z,16.4
2023-05-21T06:05:47.000Z,16.4
2023-05-21T06:06:58.000Z,16.7
2023-05-21T06:08:11.000Z,16.4
2023-05-21T06:09:23.000Z,16.4
2023-05-21T06:10:35.000Z,16.4
2023-05-21T06:11:47.000Z,17
2023-05-21T06:12:59.000Z,16.1
2023-05-21T06:14:12.000Z,15.7
2023-05-21T06:15:24.000Z,16.4
2023-05-21T06:16:36.000Z,17.4
2023-05-21T06:17:48.000Z,16.4
2023-05-21T06:19:00.000Z,17.4
2023-05-21T06:20:12.000Z,17
2023-05-21T06:21:25.000Z,16.7
2023-05-21T06:22:36.000Z,17
2023-05-21T06:23:48.000Z,17
2023-05-21T06:25:00.000Z,16.7
2023-05-21T06:26:12.000Z,16.4
2023-05-21T06:27:25.000Z,16.7
2023-05-21T06:28:37.000Z,16.7
2023-05-21T06:29:49.000Z,17
2023-05-21T06:31:01.000Z,17
2023-05-21T06:32:13.000Z,17.4
2023-05-21T06:33:26.000Z,17.4
2023-05-21T06:34:38.000Z,17.4
2023-05-21T06:35:50.000Z,16.7
2023-05-21T06:37:02.000Z,17.7
2023-05-21T06:38:14.000Z,17.4
2023-05-21T06:39:25.000Z,16.4
2023-05-21T06:40:38.000Z,18
2023-05-21T06:41:50.000Z,16.7
2023-05-21T06:43:02.000Z,17.7
2023-05-21T06:44:14.000Z,16.7
2023-05-21T06:45:26.000Z,18
2023-05-21T06:46:39.000Z,17
2023-05-21T06:47:51.000Z,16.7
2023-05-21T06:49:03.000Z,17
2023-05-21T06:50:15.000Z,17.4
2023-05-21T06:51:27.000Z,18.6
2023-05-21T06:52:39.000Z,18
2023-05-21T06:53:52.000Z,17.7
2023-05-21T06:55:03.000Z,18
2023-05-21T06:56:15.000Z,17.4
2023-05-21T06:57:27.000Z,17.4
2023-05-21T06:58:39.000Z,17.4
2023-05-21T06:59:52.000Z,18
2023-05-21T07:01:04.000Z,18
2023-05-21T07:02:16.000Z,17
2023-05-21T07:03:28.000Z,18
2023-05-21T07:04:40.000Z,19
2023-05-21T07:05:53.000Z,18.3
2023-05-21T07:07:05.000Z,18
2023-05-21T07:08:17.000Z,19
2023-05-21T07:09:29.000Z,18.3
2023-05-21T07:10:40.000Z,18.6
2023-05-21T07:11:52.000Z,18.3
2023-05-21T07:13:05.000Z,17.7
2023-05-21T07:14:17.000Z,18.6
2023-05-21T07:15:29.000Z,19.3
2023-05-21T07:16:41.000Z,19.3
2023-05-21T07:17:53.000Z,18.6
2023-05-21T07:19:06.000Z,19.3
2023-05-21T07:20:18.000Z,19
2023-05-21T07:21:30.000Z,19.9
2023-05-21T07:22:42.000Z,19.6
2023-05-21T07:23:54.000Z,19
2023-05-21T07:25:06.000Z,20.3
2023-05-21T07:26:18.000Z,19.3
2023-05-21T07:27:30.000Z,19.3
2023-05-21T07:28:42.000Z,19.6
2023-05-21T07:29:54.000Z,19.6
2023-05-21T07:31:06.000Z,19
2023-05-21T07:32:19.000Z,19.6
2023-05-21T07:33:31.000Z,19.3
2023-05-21T07:34:43.000Z,19.6
2023-05-21T07:35:55.000Z,19.9
2023-05-21T07:37:07.000Z,19.6
2023-05-21T07:38:20.000Z,19.6
2023-05-21T07:39:32.000Z,19.6
2023-05-21T07:40:44.000Z,19.6
2023-05-21T07:41:55.000Z,19.3
2023-05-21T07:43:07.000Z,19
2023-05-21T07:44:19.000Z,19.6
2023-05-21T07:45:32.000Z,19.9
2023-05-21T07:46:44.000Z,19.9
2023-05-21T07:47:56.000Z,19.9
2023-05-21T07:49:08.000Z,19.6
2023-05-21T07:50:20.000Z,19.6
2023-05-21T07:51:33.000Z,20.9
2023-05-21T07:52:45.000Z,19.6
2023-05-21T07:53:57.000Z,20.6
2023-05-21T07:55:09.000Z,20.9
2023-05-21T07:56:21.000Z,20.9
2023-05-21T07:57:33.000Z,21.2
2023-05-21T07:58:45.000Z,20.3
2023-05-21T07:59:57.000Z,20.9
2023-05-21T08:01:09.000Z,21.2
2023-05-21T08:02:21.000Z,20.9
2023-05-21T08:03:33.000Z,22.2
2023-05-21T08:04:46.125Z,22.8
2023-05-21T08:05:58.000Z,23.5
2023-05-21T08:07:10.000Z,24.4
2023-05-21T08:08:22.000Z,24.4
2023-05-21T08:09:34.000Z,24.8
2023-05-21T08:10:47.000Z,24.8
2023-05-21T08:11:59.000Z,24.8
2023-05-21T08:13:10.000Z,24.8
2023-05-21T08:14:22.000Z,25.1
2023-05-21T08:15:34.000Z,25.4
2023-05-21T08:16:46.000Z,25.7
2023-05-21T08:17:59.000Z,25.4
2023-05-21T08:19:11.000Z,25.4
2023-05-21T08:20:23.000Z,25.7
2023-05-21T08:21:35.000Z,25.4
2023-05-21T08:22:47.000Z,25.1
2023-05-21T08:24:00.000Z,25.7
2023-05-21T08:26:24.000Z,25.1
2023-05-21T08:26:58.000Z,25.7
2023-05-21T08:27:36.000Z,24.8
2023-05-21T08:28:47.000Z,25.4
2023-05-21T08:30:00.000Z,25.7
2023-05-21T08:31:12.000Z,25.1
2023-05-21T08:32:24.000Z,25.4
2023-05-21T08:33:36.000Z,25.4
2023-05-21T08:34:48.000Z,25.7
2023-05-21T08:36:00.000Z,25.1
2023-05-21T08:37:13.000Z,25.7
2023-05-21T08:38:25.000Z,26.1
2023-05-21T08:39:37.000Z,28
2023-05-21T08:40:49.000Z,25.1
2023-05-21T08:42:01.000Z,25.7
2023-05-21T08:43:14.000Z,26.4
2023-05-21T08:44:25.000Z,25.7
2023-05-21T08:45:37.000Z,26.7
2023-05-21T08:46:49.000Z,26.4
2023-05-21T08:48:01.000Z,26.1
2023-05-21T08:49:14.000Z,26.1
2023-05-21T08:50:26.000Z,25.7
2023-05-21T08:51:38.000Z,26.4
2023-05-21T08:52:50.000Z,26.4
2023-05-21T08:54:02.000Z,27.3
2023-05-21T08:55:14.000Z,26.1
2023-05-21T08:56:27.000Z,26.4
2023-05-21T08:57:39.000Z,26.7
2023-05-21T08:58:51.000Z,27
2023-05-21T09:00:03.000Z,26.7
2023-05-21T09:01:15.000Z,27.7
2023-05-21T09:02:27.000Z,28.6
2023-05-21T09:03:39.000Z,28.3
2023-05-21T09:04:51.000Z,28.6
2023-05-21T09:06:03.000Z,28.3
2023-05-21T09:07:15.000Z,28.6
2023-05-21T09:08:27.000Z,30.2
2023-05-21T09:09:40.000Z,32.8
2023-05-21T09:10:52.000Z,30.6
2023-05-21T09:12:04.000Z,30.6
2023-05-21T09:13:16.000Z,30.9
2023-05-21T09:14:28.000Z,30.6
2023-05-21T09:15:41.091Z,30.9
2023-05-21T09:16:53.000Z,30.9
2023-05-21T09:18:04.000Z,30.2
2023-05-21T09:19:16.000Z,29.9
2023-05-21T09:20:28.000Z,29.3
2023-05-21T09:21:40.000Z,29.6
2023-05-21T09:22:52.000Z,29.9
2023-05-21T09:24:04.000Z,30.2
2023-05-21T09:25:16.000Z,29.6
2023-05-21T09:26:28.000Z,29.3
2023-05-21T09:27:40.000Z,29
2023-05-21T09:28:53.000Z,28.6
2023-05-21T09:30:05.000Z,29
2023-05-21T09:31:17.000Z,29.3
2023-05-21T09:32:29.000Z,29
2023-05-21T09:33:41.000Z,28.3
2023-05-21T09:34:54.000Z,29.3
2023-05-21T09:36:06.000Z,29
2023-05-21T09:37:17.000Z,29
2023-05-21T09:38:29.000Z,29.3
2023-05-21T09:39:41.000Z,29.3
2023-05-21T09:40:54.000Z,28.3
2023-05-21T09:42:06.000Z,28.6
2023-05-21T09:43:18.000Z,29
2023-05-21T09:44:30.000Z,29
2023-05-21T09:45:42.000Z,28.6
2023-05-21T09:46:54.000Z,29
2023-05-21T09:48:07.000Z,29
2023-05-21T09:49:19.000Z,29.3
2023-05-21T09:50:31.000Z,29.6
2023-05-21T09:51:43.000Z,29.6
2023-05-21T09:52:54.000Z,29.6
2023-05-21T09:54:07.000Z,30.2
2023-05-21T09:55:19.000Z,32.5
2023-05-21T09:56:31.000Z,31.5
2023-05-21T09:57:43.000Z,30.9
2023-05-21T09:58:55.000Z,31.2
2023-05-21T10:00:08.000Z,31.2
2023-05-21T10:01:20.000Z,30.9
2023-05-21T10:02:32.000Z,30.9
2023-05-21T10:03:44.000Z,32.5
2023-05-21T10:04:56.000Z,30.9
2023-05-21T10:06:08.000Z,30.9
2023-05-21T10:07:21.000Z,30.9
2023-05-21T10:08:32.000Z,31.2
2023-05-21T10:09:44.000Z,32.2
2023-05-21T10:10:56.000Z,33.1
2023-05-21T10:12:08.000Z,31.5
2023-05-21T10:13:21.000Z,32.2
2023-05-21T10:14:33.000Z,32.8
2023-05-21T10:15:45.000Z,32.8
2023-05-21T10:16:57.000Z,33.5
2023-05-21T10:18:09.000Z,33.8
2023-05-21T10:19:21.000Z,35.1
2023-05-21T10:20:34.000Z,35.7
2023-05-21T10:21:46.000Z,35.4
2023-05-21T10:22:58.000Z,36.4
2023-05-21T10:24:09.000Z,36.7
2023-05-21T10:25:21.000Z,37.7
2023-05-21T10:26:34.000Z,36.7
2023-05-21T10:27:46.000Z,37.3
2023-05-21T10:28:58.000Z,38
2023-05-21T10:30:10.000Z,38
2023-05-21T10:31:22.000Z,37
2023-05-21T10:32:35.000Z,37.7
2023-05-21T10:33:47.000Z,37.7
2023-05-21T10:34:59.000Z,37.3
2023-05-21T10:36:11.000Z,36.7
2023-05-21T10:37:23.000Z,38
2023-05-21T10:38:35.000Z,36.4
2023-05-21T10:39:47.000Z,36.7
2023-05-21T10:40:59.000Z,36.4
2023-05-21T10:42:11.000Z,36
2023-05-21T10:43:23.000Z,36
2023-05-21T10:44:35.000Z,35.7
2023-05-21T10:45:48.000Z,36.4
2023-05-21T10:47:00.000Z,36
2023-05-21T10:48:12.000Z,36.4
2023-05-21T10:49:24.000Z,37.3
2023-05-21T10:50:36.000Z,37.3
2023-05-21T10:51:49.000Z,36.7
2023-05-21T10:53:01.000Z,37.3
2023-05-21T10:54:13.000Z,36.4
2023-05-21T10:55:24.000Z,36.7
2023-05-21T10:56:36.000Z,35.7
2023-05-21T10:57:48.000Z,36.4
2023-05-21T10:59:01.000Z,36.7
2023-05-21T11:00:13.000Z,36.7
2023-05-21T11:01:25.000Z,35.7
2023-05-21T11:02:37.000Z,35.4
2023-05-21T11:03:49.000Z,35.4
2023-05-21T11:05:02.000Z,35.1
2023-05-21T11:06:14.000Z,34.4
2023-05-21T11:07:26.000Z,35.7
2023-05-21T11:08:38.000Z,33.5
2023-05-21T11:09:50.000Z,33.5
2023-05-21T11:11:01.000Z,33.5
2023-05-21T11:12:14.000Z,33.1
2023-05-21T11:13:26.000Z,33.1
2023-05-21T11:14:38.000Z,33.1
2023-05-21T11:15:50.000Z,32.8
2023-05-21T11:17:02.000Z,32.2
2023-05-21T11:18:15.000Z,32.5
2023-05-21T11:19:27.000Z,32.2
2023-05-21T11:20:39.000Z,32.8
2023-05-21T11:21:51.000Z,31.9
2023-05-21T11:23:03.000Z,32.2
2023-05-21T11:24:16.000Z,30.9
2023-05-21T11:25:28.000Z,31.5
2023-05-21T11:26:39.000Z,30.6
2023-05-21T11:27:51.000Z,30.6
2023-05-21T11:29:03.000Z,30.2
2023-05-21T11:30:15.000Z,30.9
2023-05-21T11:31:28.000Z,30.2
2023-05-21T11:32:40.000Z,29.9
2023-05-21T11:33:52.000Z,30.2
2023-05-21T11:35:04.000Z,29
2023-05-21T11:36:16.000Z,29.9
2023-05-21T11:37:29.000Z,30.2
2023-05-21T11:38:41.000Z,29.9
2023-05-21T11:39:53.000Z,30.2
2023-05-21T11:41:05.000Z,29.9
2023-05-21T11:42:16.000Z,29.9
2023-05-21T11:43:29.000Z,29
2023-05-21T11:44:41.000Z,29.9
2023-05-21T11:45:53.000Z,37
2023-05-21T11:47:05.000Z,29.3
2023-05-21T11:48:17.000Z,29
2023-05-21T11:49:29.000Z,29.3
2023-05-21T11:50:42.000Z,29.9
2023-05-21T11:51:54.000Z,29.3
2023-05-21T11:53:06.000Z,30.2
2023-05-21T11:54:18.000Z,30.2
2023-05-21T11:55:30.000Z,30.2
2023-05-21T11:56:43.000Z,29.9
2023-05-21T11:57:54.000Z,30.6
2023-05-21T11:59:06.000Z,30.2
2023-05-21T12:00:18.000Z,30.6
2023-05-21T12:01:30.000Z,29
2023-05-21T12:02:43.000Z,29.9
2023-05-21T12:03:55.000Z,30.2
2023-05-21T12:05:07.000Z,29.6
2023-05-21T12:06:19.000Z,29.6
2023-05-21T12:07:31.000Z,30.9
2023-05-21T12:08:43.000Z,28.3
2023-05-21T12:09:56.000Z,29.6
2023-05-21T12:11:08.000Z,29.3
2023-05-21T12:12:20.000Z,29.6
2023-05-21T12:13:31.000Z,36.4
2023-05-21T12:14:43.000Z,28
2023-05-21T12:15:56.000Z,29.3
2023-05-21T12:17:08.000Z,29.9
2023-05-21T12:18:20.000Z,29
2023-05-21T12:19:32.000Z,29.3
2023-05-21T12:20:44.000Z,29.6
2023-05-21T12:21:56.000Z,29
2023-05-21T12:23:09.000Z,29.9
2023-05-21T12:24:21.000Z,29.6
2023-05-21T12:25:33.000Z,29
2023-05-21T12:26:45.000Z,29
2023-05-21T12:27:57.000Z,29.9
2023-05-21T12:29:09.000Z,28.3
2023-05-21T12:30:21.000Z,29
2023-05-21T12:31:33.000Z,27.3
2023-05-21T12:32:45.000Z,27
2023-05-21T12:33:57.000Z,25.4
2023-05-21T12:35:10.000Z,24.4
2023-05-21T12:36:22.000Z,24.4
2023-05-21T12:37:34.000Z,24.8
2023-05-21T12:38:46.000Z,24.1
2023-05-21T12:39:58.000Z,24.4
2023-05-21T12:41:10.000Z,25.1
2023-05-21T12:42:23.000Z,23.8
2023-05-21T12:43:35.000Z,24.4
2023-05-21T12:44:46.000Z,24.8
2023-05-21T12:45:58.000Z,24.4
2023-05-21T12:47:10.000Z,23.8
2023-05-21T12:48:23.000Z,25.1
2023-05-21T12:49:35.000Z,25.1
2023-05-21T12:50:47.000Z,25.4
2023-05-21T12:51:59.000Z,25.4
2023-05-21T12:53:11.000Z,25.4
2023-05-21T12:54:24.000Z,26.1
2023-05-21T12:55:36.000Z,24.4
2023-05-21T12:56:48.000Z,25.7
2023-05-21T12:58:00.000Z,26.4
2023-05-21T12:59:12.000Z,25.1
2023-05-21T13:00:23.000Z,25.7
2023-05-21T13:01:36.000Z,25.4
2023-05-21T13:02:48.000Z,25.7
2023-05-21T13:04:00.000Z,26.1
2023-05-21T13:05:12.000Z,26.4
2023-05-21T13:06:24.000Z,26.4
2023-05-21T13:07:37.000Z,26.7
2023-05-21T13:08:49.000Z,26.1
2023-05-21T13:10:01.000Z,26.4
2023-05-21T13:11:13.000Z,26.1
2023-05-21T13:12:25.000Z,26.4
2023-05-21T13:13:38.000Z,26.1
2023-05-21T13:14:50.000Z,26.1
2023-05-21T13:16:01.000Z,26.7
2023-05-21T13:17:13.000Z,26.7
2023-05-21T13:18:25.000Z,25.4
2023-05-21T13:19:37.000Z,25.1
2023-05-21T13:20:50.000Z,26.4
2023-05-21T13:22:02.000Z,26.7
2023-05-21T13:23:13.000Z,25.7
2023-05-21T13:24:25.000Z,25.4
2023-05-21T13:25:37.000Z,26.4
2023-05-21T13:26:50.000Z,26.4
2023-05-21T13:28:02.000Z,25.7
2023-05-21T13:29:14.000Z,26.1
2023-05-21T13:30:26.000Z,25.7
2023-05-21T13:31:38.000Z,26.1
2023-05-21T13:32:51.000Z,26.1
2023-05-21T13:34:03.000Z,25.7
2023-05-21T13:35:15.000Z,26.1
2023-05-21T13:36:27.000Z,26.4
2023-05-21T13:37:39.000Z,26.1
2023-05-21T13:38:50.000Z,24.8
2023-05-21T13:40:03.000Z,25.7
2023-05-21T13:41:15.000Z,26.1
2023-05-21T13:42:27.000Z,26.1
2023-05-21T13:43:39.000Z,25.7
2023-05-21T13:44:51.000Z,26.1
2023-05-21T13:46:04.000Z,26.1
2023-05-21T13:47:16.000Z,25.1
2023-05-21T13:48:28.000Z,25.4
2023-05-21T13:49:40.000Z,26.1
2023-05-21T13:50:52.000Z,26.4
2023-05-21T13:52:04.000Z,26.1
2023-05-21T13:53:17.000Z,26.4
2023-05-21T13:54:28.000Z,25.7
2023-05-21T13:55:40.000Z,26.7
2023-05-21T13:56:52.000Z,26.4
2023-05-21T13:58:04.000Z,26.4
2023-05-21T13:59:17.000Z,26.7
2023-05-21T14:00:29.000Z,26.1
2023-05-21T14:01:41.000Z,27
2023-05-21T14:02:53.000Z,26.7
2023-05-21T14:04:05.000Z,26.7
2023-05-21T14:05:18.000Z,26.7
2023-05-21T14:06:30.000Z,26.4
2023-05-21T14:07:42.000Z,27.3
2023-05-21T14:08:54.000Z,27
2023-05-21T14:10:05.000Z,27
2023-05-21T14:11:17.000Z,26.7
2023-05-21T14:12:30.000Z,26.7
2023-05-21T14:13:42.000Z,26.7
2023-05-21T14:14:54.000Z,27
2023-05-21T14:16:06.000Z,28
2023-05-21T14:17:18.000Z,27.3
2023-05-21T14:18:31.000Z,27.7
2023-05-21T14:19:43.000Z,27.3
2023-05-21T14:20:55.000Z,27.3
2023-05-21T14:22:07.000Z,27
2023-05-21T14:23:19.000Z,26.7
2023-05-21T14:24:32.000Z,27
2023-05-21T14:25:43.000Z,27
2023-05-21T14:26:55.000Z,27.7
2023-05-21T14:28:07.000Z,27.3
2023-05-21T14:29:19.000Z,27.3
2023-05-21T14:30:31.000Z,25.7
2023-05-21T14:31:44.000Z,27
2023-05-21T14:32:56.000Z,27.7
2023-05-21T14:34:08.000Z,27.7
2023-05-21T14:35:20.000Z,27.7
2023-05-21T14:36:32.000Z,26.4
2023-05-21T14:37:45.000Z,27.3
2023-05-21T14:38:57.000Z,27.3
2023-05-21T14:40:09.000Z,27
2023-05-21T14:41:20.000Z,26.7
2023-05-21T14:42:32.000Z,27.3
2023-05-21T14:43:44.000Z,26.7
2023-05-21T14:44:57.000Z,26.4
2023-05-21T14:46:09.000Z,27
2023-05-21T14:47:21.000Z,26.7
2023-05-21T14:48:33.000Z,27
2023-05-21T14:49:45.000Z,26.7
2023-05-21T14:50:58.000Z,25.7
2023-05-21T14:52:10.000Z,26.4
2023-05-21T14:53:22.000Z,27
2023-05-21T14:54:34.000Z,26.4
2023-05-21T14:55:46.000Z,26.1
2023-05-21T14:56:58.000Z,26.1
2023-05-21T14:58:10.000Z,25.4
2023-05-21T14:59:22.000Z,26.4
2023-05-21T15:00:34.000Z,25.7
2023-05-21T15:01:46.000Z,26.4
2023-05-21T15:02:58.000Z,25.1
2023-05-21T15:04:11.000Z,25.7
2023-05-21T15:05:23.000Z,25.7
2023-05-21T15:06:35.000Z,26.1
2023-05-21T15:07:47.000Z,25.4
2023-05-21T15:08:59.000Z,26.7
2023-05-21T15:10:12.000Z,25.7
2023-05-21T15:11:24.000Z,25.7
2023-05-21T15:12:35.000Z,25.7
2023-05-21T15:13:47.000Z,25.4
2023-05-21T15:14:59.000Z,25.1
2023-05-21T15:16:11.000Z,26.7
2023-05-21T15:17:24.000Z,24.8
2023-05-21T15:18:36.000Z,24.8
2023-05-21T15:19:48.000Z,24.4
2023-05-21T15:21:00.000Z,25.1
2023-05-21T15:22:12.000Z,25.1
2023-05-21T15:23:25.000Z,26.4
2023-05-21T15:24:37.000Z,25.1
2023-05-21T15:25:49.000Z,25.4
2023-05-21T15:27:01.000Z,25.7
2023-05-21T15:28:12.000Z,25.4
2023-05-21T15:29:25.000Z,25.1
2023-05-21T15:30:37.000Z,25.7
2023-05-21T15:31:49.000Z,25.4
2023-05-21T15:33:01.000Z,25.4
2023-05-21T15:34:13.000Z,24.8
2023-05-21T15:35:25.000Z,25.1
2023-05-21T15:36:38.000Z,25.1
2023-05-21T15:37:50.000Z,24.8
2023-05-21T15:39:02.000Z,27.3
2023-05-21T15:40:14.000Z,25.4
2023-05-21T15:41:26.000Z,25.1
2023-05-21T15:42:39.000Z,25.4
2023-05-21T15:43:50.000Z,25.1
2023-05-21T15:45:02.000Z,25.1
2023-05-21T15:46:14.000Z,25.1
2023-05-21T15:47:26.000Z,25.4
2023-05-21T15:48:38.000Z,25.1
2023-05-21T15:49:51.000Z,25.1
2023-05-21T15:51:03.000Z,24.8
2023-05-21T15:52:15.000Z,25.1
2023-05-21T15:53:27.000Z,24.1
2023-05-21T15:54:39.000Z,24.8
2023-05-21T15:55:52.000Z,25.7
2023-05-21T15:57:04.000Z,24.8
2023-05-21T15:58:16.000Z,25.1
2023-05-21T15:59:28.000Z,24.8
2023-05-21T16:00:39.000Z,24.8
2023-05-21T16:01:51.000Z,25.1
2023-05-21T16:03:04.000Z,25.4
2023-05-21T16:04:16.000Z,25.1
2023-05-21T16:05:28.000Z,25.1